Portada
METAR-TAF:

METAR-TAF

Aeroports :

Mildura, Austràlia

latitud: 34-13-45S, longitud: 142-05-08E, altitud: 51 m

Observació

L'informe es va fer fa 51 minuts, a les 10:00 UTC
Vent 4 kt del Nord/Nord-Oest
Temperatura 11°C
Humitat 58%
Pressió 1011 hPa
Visibilitat 10 km o més

METAR: YMIA 161000Z AUTO 33004KT 9999 // NCD 11/03 Q1011

Hora: 20:51 (10:51 UTC)


TAF: manca

Observacions i pronòstics meteorològics de més de 4000 aeroports (METAR i TAF).

Les estacions disponibles són els punts grocs i vermells al mapa.

Posi el ratolí al punt desitjat per veure el nom de l'estació.

Feu clic per veure les observacions i els pronòstics meteorològics.

Per canviar el mapa: feu clic els botons verds amb una creu de color negre per apropar; al botó verd amb un guió per allunyar la imatge; o en les fletxes verdes per a mapes adjacents.


METAR-TAF: